createdAt,value
2022-12-02T00:00:00.313Z,7.70
2022-12-02T00:01:00.609Z,7.70
2022-12-02T00:02:04.510Z,7.70
2022-12-02T00:03:00.353Z,7.70
2022-12-02T00:04:01.120Z,7.70
2022-12-02T00:05:03.808Z,7.70
2022-12-02T00:06:00.283Z,7.70
2022-12-02T00:07:00.323Z,7.70
2022-12-02T00:08:10.129Z,7.70
2022-12-02T00:09:08.548Z,7.70
2022-12-02T00:10:00.235Z,7.70
2022-12-02T00:11:01.334Z,7.70
2022-12-02T00:12:10.157Z,7.70
2022-12-02T00:13:09.448Z,7.70
2022-12-02T00:14:04.772Z,7.70
2022-12-02T00:15:01.329Z,7.70
2022-12-02T00:16:01.878Z,7.70
2022-12-02T00:17:00.235Z,7.70
2022-12-02T00:18:00.229Z,6.70
2022-12-02T00:19:00.267Z,6.70
2022-12-02T00:20:00.252Z,6.70
2022-12-02T00:21:00.267Z,6.70
2022-12-02T00:22:00.257Z,6.70
2022-12-02T00:23:00.281Z,6.70
2022-12-02T00:24:00.264Z,6.70
2022-12-02T00:25:00.271Z,6.70
2022-12-02T00:26:00.228Z,6.70
2022-12-02T00:27:00.275Z,6.70
2022-12-02T00:28:00.463Z,6.70
2022-12-02T00:29:00.295Z,6.70
2022-12-02T00:30:00.269Z,6.70
2022-12-02T00:31:00.225Z,6.70
2022-12-02T00:32:00.401Z,6.70
2022-12-02T00:33:01.617Z,6.70
2022-12-02T00:34:00.686Z,6.70
2022-12-02T00:35:00.253Z,6.70
2022-12-02T00:36:00.232Z,6.70
2022-12-02T00:37:00.299Z,6.70
2022-12-02T00:38:00.255Z,6.70
2022-12-02T00:39:00.318Z,6.70
2022-12-02T00:40:00.249Z,6.70
2022-12-02T00:41:00.275Z,6.70
2022-12-02T00:42:00.266Z,6.70
2022-12-02T00:43:00.286Z,6.70
2022-12-02T00:44:00.243Z,6.70
2022-12-02T00:45:00.238Z,6.70
2022-12-02T00:46:00.270Z,6.70
2022-12-02T00:47:00.250Z,6.70
2022-12-02T00:48:00.345Z,6.50
2022-12-02T00:49:03.352Z,6.50
2022-12-02T00:50:00.307Z,6.50
2022-12-02T00:51:00.243Z,6.50
2022-12-02T00:52:00.368Z,6.50
2022-12-02T00:53:00.237Z,6.50
2022-12-02T00:54:00.433Z,6.50
2022-12-02T00:55:00.287Z,6.50
2022-12-02T00:56:00.282Z,6.50
2022-12-02T00:57:00.217Z,6.50
2022-12-02T00:58:00.234Z,6.50
2022-12-02T00:59:00.620Z,6.50
2022-12-02T01:00:00.402Z,6.50
2022-12-02T01:01:00.354Z,6.50
2022-12-02T01:02:00.336Z,6.50
2022-12-02T01:03:00.253Z,6.50
2022-12-02T01:04:00.276Z,6.50
2022-12-02T01:05:00.434Z,6.50
2022-12-02T01:06:00.295Z,6.50
2022-12-02T01:07:00.241Z,6.50
2022-12-02T01:08:00.330Z,6.50
2022-12-02T01:09:00.304Z,6.50
2022-12-02T01:10:00.316Z,6.50
2022-12-02T01:11:00.281Z,6.50
2022-12-02T01:12:00.257Z,6.50
2022-12-02T01:13:00.257Z,6.50
2022-12-02T01:14:00.306Z,6.50
2022-12-02T01:15:00.275Z,6.50
2022-12-02T01:16:00.271Z,6.50
2022-12-02T01:17:00.505Z,6.50
2022-12-02T01:18:00.247Z,6.20
2022-12-02T01:19:00.252Z,6.20
2022-12-02T01:20:00.296Z,6.20
2022-12-02T01:21:00.256Z,6.20
2022-12-02T01:22:00.237Z,6.20
2022-12-02T01:23:00.233Z,6.20
2022-12-02T01:24:00.247Z,6.20
2022-12-02T01:25:00.256Z,6.20
2022-12-02T01:26:00.245Z,6.20
2022-12-02T01:27:00.246Z,6.20
2022-12-02T01:28:00.276Z,6.20
2022-12-02T01:29:00.229Z,6.20
2022-12-02T01:30:00.355Z,6.20
2022-12-02T01:31:00.374Z,6.20
2022-12-02T01:32:00.338Z,6.20
2022-12-02T01:33:00.229Z,6.20
2022-12-02T01:34:00.229Z,6.20
2022-12-02T01:35:00.266Z,6.20
2022-12-02T01:36:00.272Z,6.20
2022-12-02T01:37:00.235Z,6.20
2022-12-02T01:38:00.244Z,6.20
2022-12-02T01:39:00.229Z,6.20
2022-12-02T01:40:00.316Z,6.20
2022-12-02T01:41:00.438Z,6.20
2022-12-02T01:42:00.263Z,6.20
2022-12-02T01:43:00.368Z,6.20
2022-12-02T01:44:00.340Z,6.20
2022-12-02T01:45:00.327Z,6.20
2022-12-02T01:46:00.717Z,6.20
2022-12-02T01:47:00.505Z,6.20
2022-12-02T01:48:00.606Z,6.30
2022-12-02T01:49:00.285Z,6.30
2022-12-02T01:50:00.371Z,6.30
2022-12-02T01:51:00.485Z,6.30
2022-12-02T01:52:00.266Z,6.30
2022-12-02T01:53:00.848Z,6.30
2022-12-02T01:54:00.424Z,6.30
2022-12-02T01:55:00.386Z,6.30
2022-12-02T01:56:00.515Z,6.30
2022-12-02T01:57:00.576Z,6.30
2022-12-02T01:58:00.427Z,6.30
2022-12-02T01:59:00.346Z,6.30
2022-12-02T02:00:00.552Z,6.30
2022-12-02T02:01:00.342Z,6.30
2022-12-02T02:02:00.286Z,6.30
2022-12-02T02:03:00.270Z,6.30
2022-12-02T02:04:01.224Z,6.30
2022-12-02T02:05:02.557Z,6.30
2022-12-02T02:06:00.226Z,6.30
2022-12-02T02:07:00.286Z,6.30
2022-12-02T02:08:03.788Z,6.30
2022-12-02T02:09:00.396Z,6.30
2022-12-02T02:10:00.324Z,6.30
2022-12-02T02:11:00.250Z,6.30
2022-12-02T02:12:00.244Z,6.30
2022-12-02T02:13:00.898Z,6.30
2022-12-02T02:14:00.821Z,6.30
2022-12-02T02:15:01.588Z,6.30
2022-12-02T02:16:00.320Z,6.30
2022-12-02T02:17:00.320Z,6.30
2022-12-02T02:18:04.888Z,6.30
2022-12-02T02:19:01.107Z,6.30
2022-12-02T02:20:01.145Z,6.30
2022-12-02T02:21:00.570Z,6.30
2022-12-02T02:22:02.340Z,6.30
2022-12-02T02:23:10.151Z,6.30
2022-12-02T02:24:00.455Z,6.30
2022-12-02T02:25:00.259Z,6.30
2022-12-02T02:26:00.295Z,6.30
2022-12-02T02:27:00.233Z,6.30
2022-12-02T02:28:00.881Z,6.30
2022-12-02T02:29:00.350Z,6.30
2022-12-02T02:30:00.417Z,6.30
2022-12-02T02:31:00.563Z,6.30
2022-12-02T02:32:00.680Z,6.30
2022-12-02T02:33:01.702Z,6.30
2022-12-02T02:34:00.603Z,6.30
2022-12-02T02:35:00.507Z,6.30
2022-12-02T02:36:00.645Z,6.30
2022-12-02T02:37:00.361Z,6.30
2022-12-02T02:38:00.751Z,6.30
2022-12-02T02:39:00.396Z,6.30
2022-12-02T02:40:00.412Z,6.30
2022-12-02T02:41:00.461Z,6.30
2022-12-02T02:42:00.472Z,6.30
2022-12-02T02:43:01.329Z,6.30
2022-12-02T02:44:00.320Z,6.30
2022-12-02T02:45:00.859Z,6.30
2022-12-02T02:46:00.596Z,6.30
2022-12-02T02:47:00.460Z,6.30
2022-12-02T02:48:01.757Z,5.80
2022-12-02T02:49:00.355Z,5.80
2022-12-02T02:50:00.308Z,5.80
2022-12-02T02:51:00.865Z,5.80
2022-12-02T02:52:00.251Z,5.80
2022-12-02T02:53:00.263Z,5.80
2022-12-02T02:54:00.432Z,5.80
2022-12-02T02:55:00.411Z,5.80
2022-12-02T02:56:00.729Z,5.80
2022-12-02T02:57:00.411Z,5.80
2022-12-02T02:58:10.142Z,5.80
2022-12-02T02:59:00.222Z,5.80
2022-12-02T03:00:00.782Z,5.80
2022-12-02T03:01:03.913Z,5.80
2022-12-02T03:02:02.533Z,5.80
2022-12-02T03:03:00.351Z,5.80
2022-12-02T03:04:03.905Z,5.80
2022-12-02T03:05:00.486Z,5.80
2022-12-02T03:06:01.380Z,5.80
2022-12-02T03:07:00.376Z,5.80
2022-12-02T03:08:00.557Z,5.80
2022-12-02T03:09:01.306Z,5.80
2022-12-02T03:10:01.053Z,5.80
2022-12-02T03:11:01.157Z,5.80
2022-12-02T03:12:00.713Z,5.80
2022-12-02T03:13:00.379Z,5.80
2022-12-02T03:14:00.528Z,5.80
2022-12-02T03:15:01.413Z,5.80
2022-12-02T03:16:01.300Z,5.80
2022-12-02T03:17:01.227Z,5.80
2022-12-02T03:18:00.330Z,6.40
2022-12-02T03:19:00.400Z,6.40
2022-12-02T03:20:00.351Z,6.40
2022-12-02T03:21:00.576Z,6.40
2022-12-02T03:22:01.226Z,6.40
2022-12-02T03:23:00.831Z,6.40
2022-12-02T03:24:01.888Z,6.40
2022-12-02T03:25:00.758Z,6.40
2022-12-02T03:26:00.930Z,6.40
2022-12-02T03:27:00.524Z,6.40
2022-12-02T03:28:00.366Z,6.40
2022-12-02T03:29:01.503Z,6.40
2022-12-02T03:30:00.628Z,6.40
2022-12-02T03:31:00.425Z,6.40
2022-12-02T03:32:00.590Z,6.40
2022-12-02T03:33:00.348Z,6.40
2022-12-02T03:34:00.498Z,6.40
2022-12-02T03:35:00.669Z,6.40
2022-12-02T03:36:00.488Z,6.40
2022-12-02T03:37:00.264Z,6.40
2022-12-02T03:38:00.348Z,6.40
2022-12-02T03:39:00.698Z,6.40
2022-12-02T03:40:00.409Z,6.40
2022-12-02T03:41:02.014Z,6.40
2022-12-02T03:42:00.300Z,6.40
2022-12-02T03:43:00.334Z,6.40
2022-12-02T03:44:00.240Z,6.40
2022-12-02T03:45:00.523Z,6.40
2022-12-02T03:46:00.484Z,6.40
2022-12-02T03:47:00.964Z,6.40
2022-12-02T03:48:01.056Z,6.40
2022-12-02T03:49:00.905Z,6.40
2022-12-02T03:50:01.004Z,6.40
2022-12-02T03:51:00.241Z,6.40
2022-12-02T03:52:00.274Z,6.40
2022-12-02T03:53:00.280Z,6.40
2022-12-02T03:54:00.727Z,6.40
2022-12-02T03:55:00.932Z,6.40
2022-12-02T03:56:02.705Z,6.40
2022-12-02T03:57:03.539Z,6.40
2022-12-02T03:58:04.765Z,6.40
2022-12-02T03:59:00.267Z,6.40
2022-12-02T04:00:04.053Z,6.40
2022-12-02T04:01:00.421Z,6.40
2022-12-02T04:02:00.427Z,6.40
2022-12-02T04:03:00.712Z,6.40
2022-12-02T04:04:00.216Z,6.40
2022-12-02T04:05:00.250Z,6.40
2022-12-02T04:06:00.255Z,6.40
2022-12-02T04:07:00.238Z,6.40
2022-12-02T04:08:00.364Z,6.40
2022-12-02T04:09:00.283Z,6.40
2022-12-02T04:10:00.276Z,6.40
2022-12-02T04:11:00.266Z,6.40
2022-12-02T04:12:00.255Z,6.40
2022-12-02T04:13:00.225Z,6.40
2022-12-02T04:14:00.410Z,6.40
2022-12-02T04:15:00.242Z,6.40
2022-12-02T04:16:05.999Z,6.40
2022-12-02T04:17:05.140Z,6.40
2022-12-02T04:18:00.229Z,6.50
2022-12-02T04:19:00.256Z,6.50
2022-12-02T04:20:00.640Z,6.50
2022-12-02T04:21:00.533Z,6.50
2022-12-02T04:22:00.260Z,6.50
2022-12-02T04:23:00.238Z,6.50
2022-12-02T04:24:00.222Z,6.50
2022-12-02T04:25:00.301Z,6.50
2022-12-02T04:26:00.263Z,6.50
2022-12-02T04:27:00.247Z,6.50
2022-12-02T04:28:00.268Z,6.50
2022-12-02T04:29:00.232Z,6.50
2022-12-02T04:30:00.229Z,6.50
2022-12-02T04:31:00.316Z,6.50
2022-12-02T04:32:00.289Z,6.50
2022-12-02T04:33:00.404Z,6.50
2022-12-02T04:34:00.222Z,6.50
2022-12-02T04:35:00.246Z,6.50
2022-12-02T04:36:00.239Z,6.50
2022-12-02T04:37:00.228Z,6.50
2022-12-02T04:38:00.295Z,6.50
2022-12-02T04:39:00.235Z,6.50
2022-12-02T04:40:00.339Z,6.50
2022-12-02T04:41:00.236Z,6.50
2022-12-02T04:42:00.446Z,6.50
2022-12-02T04:43:00.236Z,6.50
2022-12-02T04:44:00.238Z,6.50
2022-12-02T04:45:00.392Z,6.50
2022-12-02T04:46:00.324Z,6.50
2022-12-02T04:47:00.438Z,6.50
2022-12-02T04:48:00.240Z,7.70
2022-12-02T04:49:00.796Z,7.70
2022-12-02T04:50:00.260Z,7.70
2022-12-02T04:51:00.251Z,7.70
2022-12-02T04:52:00.242Z,7.70
2022-12-02T04:53:00.381Z,7.70
2022-12-02T04:54:00.256Z,7.70
2022-12-02T04:55:00.557Z,7.70
2022-12-02T04:56:00.233Z,7.70
2022-12-02T04:57:00.263Z,7.70
2022-12-02T04:58:00.270Z,7.70
2022-12-02T04:59:00.227Z,7.70
2022-12-02T05:00:00.563Z,7.70
2022-12-02T05:01:00.224Z,7.70
2022-12-02T05:02:00.229Z,7.70
2022-12-02T05:03:00.312Z,7.70
2022-12-02T05:04:00.343Z,7.70
2022-12-02T05:05:00.318Z,7.70
2022-12-02T05:06:00.258Z,7.70
2022-12-02T05:07:00.227Z,7.70
2022-12-02T05:08:00.340Z,7.70
2022-12-02T05:09:00.231Z,7.70
2022-12-02T05:10:00.315Z,7.70
2022-12-02T05:11:00.223Z,7.70
2022-12-02T05:12:00.371Z,7.70
2022-12-02T05:13:00.233Z,7.70
2022-12-02T05:14:00.237Z,7.70
2022-12-02T05:15:00.253Z,7.70
2022-12-02T05:16:00.292Z,7.70
2022-12-02T05:17:00.240Z,7.70
2022-12-02T05:18:00.245Z,7.50
2022-12-02T05:19:00.475Z,7.50
2022-12-02T05:20:00.385Z,7.50
2022-12-02T05:21:00.260Z,7.50
2022-12-02T05:22:00.249Z,7.50
2022-12-02T05:23:00.228Z,7.50
2022-12-02T05:24:00.253Z,7.50
2022-12-02T05:25:00.236Z,7.50
2022-12-02T05:26:00.289Z,7.50
2022-12-02T05:27:00.242Z,7.50
2022-12-02T05:28:00.231Z,7.50
2022-12-02T05:29:00.243Z,7.50
2022-12-02T05:30:00.287Z,7.50
2022-12-02T05:31:00.353Z,7.50
2022-12-02T05:32:00.295Z,7.50
2022-12-02T05:33:00.361Z,7.50
2022-12-02T05:34:00.340Z,7.50
2022-12-02T05:35:00.344Z,7.50
2022-12-02T05:36:00.602Z,7.50
2022-12-02T05:37:00.359Z,7.50
2022-12-02T05:38:04.772Z,7.50
2022-12-02T05:39:00.370Z,7.50
2022-12-02T05:40:00.463Z,7.50
2022-12-02T05:41:00.364Z,7.50
2022-12-02T05:42:04.232Z,7.50
2022-12-02T05:43:10.212Z,7.50
2022-12-02T05:44:10.214Z,7.50
2022-12-02T05:45:05.901Z,7.50
2022-12-02T05:46:00.344Z,7.50
2022-12-02T05:47:01.709Z,7.50
2022-12-02T05:48:00.491Z,7.80
2022-12-02T05:49:00.385Z,7.80
2022-12-02T05:50:00.487Z,7.80
2022-12-02T05:51:00.666Z,7.80
2022-12-02T05:52:01.129Z,7.80
2022-12-02T05:53:00.730Z,7.80
2022-12-02T05:56:00.294Z,7.80
2022-12-02T05:57:02.065Z,7.80
2022-12-02T05:58:01.498Z,7.80
2022-12-02T05:59:01.627Z,7.80
2022-12-02T06:00:07.785Z,7.80
2022-12-02T06:01:00.253Z,7.80
2022-12-02T06:02:00.373Z,7.80
2022-12-02T06:03:01.525Z,7.80
2022-12-02T06:04:00.684Z,7.80
2022-12-02T06:05:00.252Z,7.80
2022-12-02T06:06:00.946Z,7.80
2022-12-02T06:07:01.484Z,7.80
2022-12-02T06:08:07.717Z,7.80
2022-12-02T06:09:00.359Z,7.80
2022-12-02T06:10:00.338Z,7.80
2022-12-02T06:11:01.575Z,7.80
2022-12-02T06:12:01.413Z,7.80
2022-12-02T06:13:03.600Z,7.80
2022-12-02T06:14:02.241Z,7.80
2022-12-02T06:15:00.273Z,7.80
2022-12-02T06:16:00.695Z,7.80
2022-12-02T06:17:01.614Z,7.80
2022-12-02T06:18:00.249Z,7.60
2022-12-02T06:19:01.385Z,7.60
2022-12-02T06:20:00.324Z,7.60
2022-12-02T06:21:02.657Z,7.60
2022-12-02T06:22:00.416Z,7.60
2022-12-02T06:23:01.447Z,7.60
2022-12-02T06:24:00.422Z,7.60
2022-12-02T06:25:01.170Z,7.60
2022-12-02T06:26:00.397Z,7.60
2022-12-02T06:27:01.474Z,7.60
2022-12-02T06:28:10.595Z,7.60
2022-12-02T06:29:01.461Z,7.60
2022-12-02T06:30:01.335Z,7.60
2022-12-02T06:31:04.353Z,7.60
2022-12-02T06:32:00.377Z,7.60
2022-12-02T06:33:00.341Z,7.60
2022-12-02T06:34:04.515Z,7.60
2022-12-02T06:35:03.428Z,7.60
2022-12-02T06:36:02.012Z,7.60
2022-12-02T06:37:07.641Z,7.60
2022-12-02T06:38:02.448Z,7.60
2022-12-02T06:39:01.851Z,7.60
2022-12-02T06:40:28.786Z,7.60
2022-12-02T06:41:09.764Z,7.60
2022-12-02T06:42:02.344Z,7.60
2022-12-02T06:43:00.808Z,7.60
2022-12-02T06:44:01.401Z,7.60
2022-12-02T06:45:06.215Z,7.60
2022-12-02T06:46:00.406Z,7.60
2022-12-02T06:47:10.151Z,7.60
2022-12-02T06:48:03.601Z,9.30
2022-12-02T06:49:10.161Z,9.30
2022-12-02T06:50:03.494Z,9.30
2022-12-02T06:51:09.982Z,9.30
2022-12-02T06:52:04.994Z,9.30
2022-12-02T06:53:10.172Z,9.30
2022-12-02T06:54:03.137Z,9.30
2022-12-02T06:55:00.682Z,9.30
2022-12-02T06:56:04.400Z,9.30
2022-12-02T06:57:00.893Z,9.30
2022-12-02T06:58:10.146Z,9.30
2022-12-02T06:59:01.530Z,9.30
2022-12-02T07:00:00.308Z,9.30
2022-12-02T07:01:10.182Z,9.30
2022-12-02T07:02:07.796Z,9.30
2022-12-02T07:03:00.397Z,9.30
2022-12-02T07:04:00.234Z,9.30
2022-12-02T07:05:00.244Z,9.30
2022-12-02T07:06:09.773Z,9.30
2022-12-02T07:07:10.156Z,9.30
2022-12-02T07:08:00.334Z,9.30
2022-12-02T07:09:02.980Z,9.30
2022-12-02T07:10:06.095Z,9.30
2022-12-02T07:11:00.349Z,9.30
2022-12-02T07:12:00.361Z,9.30
2022-12-02T07:13:03.089Z,9.30
2022-12-02T07:14:00.227Z,9.30
2022-12-02T07:15:10.187Z,9.30
2022-12-02T07:16:00.248Z,9.30
2022-12-02T07:17:02.616Z,9.30
2022-12-02T07:18:08.404Z,8.80
2022-12-02T07:19:00.226Z,8.80
2022-12-02T07:20:10.224Z,8.80
2022-12-02T07:21:00.244Z,8.80
2022-12-02T07:22:00.243Z,8.80
2022-12-02T07:23:01.150Z,8.80
2022-12-02T07:24:00.260Z,8.80
2022-12-02T07:25:10.151Z,8.80
2022-12-02T07:26:00.267Z,8.80
2022-12-02T07:27:05.504Z,8.80
2022-12-02T07:28:01.388Z,8.80
2022-12-02T07:29:14.999Z,8.80
2022-12-02T07:30:00.663Z,8.80
2022-12-02T07:31:09.221Z,8.80
2022-12-02T07:32:00.267Z,8.80
2022-12-02T07:33:00.511Z,8.80
2022-12-02T07:34:00.230Z,8.80
2022-12-02T07:35:00.237Z,8.80
2022-12-02T07:36:00.369Z,8.80
2022-12-02T07:37:00.225Z,8.80
2022-12-02T07:38:00.236Z,8.80
2022-12-02T07:39:07.057Z,8.80
2022-12-02T07:40:00.261Z,8.80
2022-12-02T07:41:00.282Z,8.80
2022-12-02T07:42:00.239Z,8.80
2022-12-02T07:43:00.313Z,8.80
2022-12-02T07:44:00.468Z,8.80
2022-12-02T07:45:00.368Z,8.80
2022-12-02T07:46:00.657Z,8.80
2022-12-02T07:47:00.710Z,8.80
2022-12-02T07:48:00.296Z,9.50
2022-12-02T07:49:00.311Z,9.50
2022-12-02T07:50:00.489Z,9.50
2022-12-02T07:51:00.236Z,9.50
2022-12-02T07:52:00.255Z,9.50
2022-12-02T07:53:00.244Z,9.50
2022-12-02T07:54:00.394Z,9.50
2022-12-02T07:55:00.281Z,9.50
2022-12-02T07:56:00.283Z,9.50
2022-12-02T07:57:00.271Z,9.50
2022-12-02T07:58:00.323Z,9.50
2022-12-02T07:59:13.036Z,9.50
2022-12-02T08:00:00.471Z,9.50
2022-12-02T08:01:00.326Z,9.50
2022-12-02T08:02:00.423Z,9.50
2022-12-02T08:03:00.403Z,9.50
2022-12-02T08:04:00.345Z,9.50
2022-12-02T08:05:00.397Z,9.50
2022-12-02T08:06:00.249Z,9.50
2022-12-02T08:07:00.234Z,9.50
2022-12-02T08:08:00.293Z,9.50
2022-12-02T08:09:00.288Z,9.50
2022-12-02T08:10:00.286Z,9.50
2022-12-02T08:11:00.232Z,9.50
2022-12-02T08:12:00.226Z,9.50
2022-12-02T08:13:00.275Z,9.50
2022-12-02T08:14:00.301Z,9.50
2022-12-02T08:15:00.231Z,9.50
2022-12-02T08:16:00.242Z,9.50
2022-12-02T08:17:00.315Z,9.50
2022-12-02T08:18:00.230Z,10.50
2022-12-02T08:19:00.240Z,10.50
2022-12-02T08:20:00.265Z,10.50
2022-12-02T08:21:02.303Z,10.50
2022-12-02T08:22:00.258Z,10.50
2022-12-02T08:23:00.224Z,10.50
2022-12-02T08:24:01.205Z,10.50
2022-12-02T08:25:00.256Z,10.50
2022-12-02T08:26:00.241Z,10.50
2022-12-02T08:27:00.258Z,10.50
2022-12-02T08:28:00.241Z,10.50
2022-12-02T08:29:00.232Z,10.50
2022-12-02T08:30:00.550Z,10.50
2022-12-02T08:31:00.519Z,10.50
2022-12-02T08:32:00.277Z,10.50
2022-12-02T08:33:00.233Z,10.50
2022-12-02T08:34:06.640Z,10.50
2022-12-02T08:35:00.359Z,10.50
2022-12-02T08:36:00.283Z,10.50
2022-12-02T08:37:00.245Z,10.50
2022-12-02T08:38:00.282Z,10.50
2022-12-02T08:39:00.389Z,10.50
2022-12-02T08:40:00.325Z,10.50
2022-12-02T08:41:00.416Z,10.50
2022-12-02T08:42:00.323Z,10.50
2022-12-02T08:43:00.897Z,10.50
2022-12-02T08:44:00.413Z,10.50
2022-12-02T08:45:00.293Z,10.50
2022-12-02T08:46:00.509Z,10.50
2022-12-02T08:47:00.525Z,10.50
2022-12-02T08:48:00.224Z,10.70
2022-12-02T08:49:00.303Z,10.70
2022-12-02T08:50:00.363Z,10.70
2022-12-02T08:51:00.245Z,10.70
2022-12-02T08:52:00.505Z,10.70
2022-12-02T08:53:00.291Z,10.70
2022-12-02T08:54:00.702Z,10.70
2022-12-02T08:55:00.246Z,10.70
2022-12-02T08:56:00.267Z,10.70
2022-12-02T08:57:00.360Z,10.70
2022-12-02T08:58:00.291Z,10.70
2022-12-02T08:59:00.457Z,10.70
2022-12-02T09:00:00.343Z,10.70
2022-12-02T09:01:00.230Z,10.70
2022-12-02T09:02:00.339Z,10.70
2022-12-02T09:03:00.303Z,10.70
2022-12-02T09:04:00.260Z,10.70
2022-12-02T09:05:00.374Z,10.70
2022-12-02T09:06:00.260Z,10.70
2022-12-02T09:07:00.298Z,10.70
2022-12-02T09:08:00.543Z,10.70
2022-12-02T09:09:00.320Z,10.70
2022-12-02T09:10:00.593Z,10.70
2022-12-02T09:11:00.503Z,10.70
2022-12-02T09:12:00.275Z,10.70
2022-12-02T09:13:00.403Z,10.70
2022-12-02T09:14:00.376Z,10.70
2022-12-02T09:15:00.366Z,10.70
2022-12-02T09:16:00.413Z,10.70
2022-12-02T09:17:00.258Z,10.70
2022-12-02T09:18:00.242Z,11.90
2022-12-02T09:19:00.309Z,11.90
2022-12-02T09:20:00.277Z,11.90
2022-12-02T09:21:00.282Z,11.90
2022-12-02T09:22:00.323Z,11.90
2022-12-02T09:23:00.224Z,11.90
2022-12-02T09:24:00.284Z,11.90
2022-12-02T09:25:00.260Z,11.90
2022-12-02T09:26:00.273Z,11.90
2022-12-02T09:27:00.249Z,11.90
2022-12-02T09:28:00.254Z,11.90
2022-12-02T09:29:00.300Z,11.90
2022-12-02T09:30:00.270Z,11.90
2022-12-02T09:31:00.293Z,11.90
2022-12-02T09:32:00.277Z,11.90
2022-12-02T09:33:00.854Z,11.90
2022-12-02T09:34:00.233Z,11.90
2022-12-02T09:35:00.482Z,11.90
2022-12-02T09:36:00.250Z,11.90
2022-12-02T09:37:00.258Z,11.90
2022-12-02T09:38:00.246Z,11.90
2022-12-02T09:39:00.353Z,11.90
2022-12-02T09:40:00.332Z,11.90
2022-12-02T09:41:00.273Z,11.90
2022-12-02T09:42:00.462Z,11.90
2022-12-02T09:43:00.966Z,11.90
2022-12-02T09:44:00.348Z,11.90
2022-12-02T09:45:00.421Z,11.90
2022-12-02T09:46:00.589Z,11.90
2022-12-02T09:47:00.297Z,11.90
2022-12-02T09:48:00.893Z,13.60
2022-12-02T09:49:00.423Z,13.60
2022-12-02T09:50:00.296Z,13.60
2022-12-02T09:51:00.837Z,13.60
2022-12-02T09:52:01.822Z,13.60
2022-12-02T09:53:04.871Z,13.60
2022-12-02T09:54:01.620Z,13.60
2022-12-02T09:55:00.958Z,13.60
2022-12-02T09:56:00.403Z,13.60
2022-12-02T09:57:00.282Z,13.60
2022-12-02T09:58:09.605Z,13.60
2022-12-02T09:59:05.549Z,13.60
2022-12-02T10:00:02.649Z,13.60
2022-12-02T10:01:00.250Z,13.60
2022-12-02T10:02:00.371Z,13.60
2022-12-02T10:03:00.572Z,13.60
2022-12-02T10:04:00.344Z,13.60
2022-12-02T10:05:03.818Z,13.60
2022-12-02T10:06:03.315Z,13.60
2022-12-02T10:07:00.369Z,13.60
2022-12-02T10:08:00.766Z,13.60
2022-12-02T10:09:00.535Z,13.60
2022-12-02T10:10:00.761Z,13.60
2022-12-02T10:11:00.331Z,13.60
2022-12-02T10:12:00.275Z,13.60
2022-12-02T10:13:05.972Z,13.60
2022-12-02T10:14:00.610Z,13.60
2022-12-02T10:15:00.346Z,13.60
2022-12-02T10:16:00.750Z,13.60
2022-12-02T10:17:00.259Z,13.60
2022-12-02T10:18:10.168Z,14.90
2022-12-02T10:19:01.477Z,14.90
2022-12-02T10:20:00.366Z,14.90
2022-12-02T10:21:00.300Z,14.90
2022-12-02T10:22:00.285Z,14.90
2022-12-02T10:23:04.115Z,14.90
2022-12-02T10:24:01.698Z,14.90
2022-12-02T10:25:00.313Z,14.90
2022-12-02T10:26:10.155Z,14.90
2022-12-02T10:27:00.271Z,14.90
2022-12-02T10:28:00.517Z,14.90
2022-12-02T10:29:03.923Z,14.90
2022-12-02T10:30:10.230Z,14.90
2022-12-02T10:31:07.428Z,14.90
2022-12-02T10:32:02.181Z,14.90
2022-12-02T10:33:01.801Z,14.90
2022-12-02T10:34:01.943Z,14.90
2022-12-02T10:35:03.900Z,14.90
2022-12-02T10:36:00.799Z,14.90
2022-12-02T10:37:10.218Z,14.90
2022-12-02T10:38:00.406Z,14.90
2022-12-02T10:39:10.236Z,14.90
2022-12-02T10:40:10.233Z,14.90
2022-12-02T10:41:10.254Z,14.90
2022-12-02T10:42:01.357Z,14.90
2022-12-02T10:43:10.034Z,14.90
2022-12-02T10:44:02.037Z,14.90
2022-12-02T10:45:10.237Z,14.90
2022-12-02T10:46:00.411Z,14.90
2022-12-02T10:47:10.270Z,14.90
2022-12-02T10:48:10.282Z,14.20
2022-12-02T10:49:10.252Z,14.20
2022-12-02T10:50:00.426Z,14.20
2022-12-02T10:51:00.430Z,14.20
2022-12-02T10:52:03.967Z,14.20
2022-12-02T10:53:00.654Z,14.20
2022-12-02T10:54:00.391Z,14.20
2022-12-02T10:55:01.654Z,14.20
2022-12-02T10:56:00.491Z,14.20
2022-12-02T10:57:01.193Z,14.20
2022-12-02T10:58:00.436Z,14.20
2022-12-02T10:59:00.370Z,14.20
2022-12-02T11:00:02.149Z,14.20
2022-12-02T11:01:00.519Z,14.20
2022-12-02T11:02:01.249Z,14.20
2022-12-02T11:03:03.321Z,14.20
2022-12-02T11:04:00.355Z,14.20
2022-12-02T11:05:10.237Z,14.20
2022-12-02T11:06:00.689Z,14.20
2022-12-02T11:07:00.380Z,14.20
2022-12-02T11:08:01.893Z,14.20
2022-12-02T11:09:31.567Z,14.20
2022-12-02T11:10:00.414Z,14.20
2022-12-02T11:11:10.214Z,14.20
2022-12-02T11:12:10.244Z,14.20
2022-12-02T11:13:02.674Z,14.20
2022-12-02T11:14:01.631Z,14.20
2022-12-02T11:15:01.183Z,14.20
2022-12-02T11:16:10.351Z,14.20
2022-12-02T11:17:05.864Z,14.20
2022-12-02T11:18:00.785Z,14.80
2022-12-02T11:19:04.749Z,14.80
2022-12-02T11:20:10.217Z,14.80
2022-12-02T11:21:00.367Z,14.80
2022-12-02T11:22:00.894Z,14.80
2022-12-02T11:23:00.372Z,14.80
2022-12-02T11:24:10.267Z,14.80
2022-12-02T11:25:00.367Z,14.80
2022-12-02T11:26:01.516Z,14.80
2022-12-02T11:27:00.430Z,14.80
2022-12-02T11:28:10.212Z,14.80
2022-12-02T11:29:10.219Z,14.80
2022-12-02T11:30:03.608Z,14.80
2022-12-02T11:31:10.376Z,14.80
2022-12-02T11:32:01.893Z,14.80
2022-12-02T11:33:00.371Z,14.80
2022-12-02T11:34:05.619Z,14.80
2022-12-02T11:35:18.058Z,14.80
2022-12-02T11:36:10.227Z,14.80
2022-12-02T11:37:10.237Z,14.80
2022-12-02T11:38:10.317Z,14.80
2022-12-02T11:39:08.312Z,14.80
2022-12-02T11:40:10.234Z,14.80
2022-12-02T11:41:00.441Z,14.80
2022-12-02T11:42:00.362Z,14.80
2022-12-02T11:43:10.245Z,14.80
2022-12-02T11:44:06.615Z,14.80
2022-12-02T11:45:10.313Z,14.80
2022-12-02T11:46:00.538Z,14.80
2022-12-02T11:47:02.347Z,14.80
2022-12-02T11:48:01.549Z,14.60
2022-12-02T11:49:00.459Z,14.60
2022-12-02T11:50:10.226Z,14.60
2022-12-02T11:51:00.427Z,14.60
2022-12-02T11:52:08.853Z,14.60
2022-12-02T11:53:02.199Z,14.60
2022-12-02T11:54:00.485Z,14.60
2022-12-02T11:55:01.335Z,14.60
2022-12-02T11:56:00.369Z,14.60
2022-12-02T11:57:00.415Z,14.60
2022-12-02T11:58:01.509Z,14.60
2022-12-02T11:59:00.436Z,14.60
2022-12-02T12:00:00.452Z,14.60
2022-12-02T12:01:04.716Z,14.60
2022-12-02T12:02:08.783Z,14.60
2022-12-02T12:03:03.916Z,14.60
2022-12-02T12:04:00.374Z,14.60
2022-12-02T12:05:02.335Z,14.60
2022-12-02T12:06:05.534Z,14.60
2022-12-02T12:07:00.378Z,14.60
2022-12-02T12:08:03.258Z,14.60
2022-12-02T12:09:08.828Z,14.60
2022-12-02T12:10:00.371Z,14.60
2022-12-02T12:11:10.307Z,14.60
2022-12-02T12:12:10.268Z,14.60
2022-12-02T12:13:10.233Z,14.60
2022-12-02T12:14:00.350Z,14.60
2022-12-02T12:15:04.069Z,14.60
2022-12-02T12:16:01.261Z,14.60
2022-12-02T12:17:10.418Z,14.60
2022-12-02T12:18:00.513Z,13.70
2022-12-02T12:19:04.387Z,13.70
2022-12-02T12:20:00.436Z,13.70
2022-12-02T12:21:00.448Z,13.70
2022-12-02T12:22:00.447Z,13.70
2022-12-02T12:23:10.244Z,13.70
2022-12-02T12:24:10.255Z,13.70
2022-12-02T12:25:10.270Z,13.70
2022-12-02T12:26:00.714Z,13.70
2022-12-02T12:27:01.335Z,13.70
2022-12-02T12:28:00.436Z,13.70
2022-12-02T12:29:00.991Z,13.70
2022-12-02T12:30:00.498Z,13.70
2022-12-02T12:31:01.490Z,13.70
2022-12-02T12:32:00.363Z,13.70
2022-12-02T12:33:00.272Z,13.70
2022-12-02T12:34:00.287Z,13.70
2022-12-02T12:35:00.362Z,13.70
2022-12-02T12:36:00.290Z,13.70
2022-12-02T12:37:00.300Z,13.70
2022-12-02T12:38:00.231Z,13.70
2022-12-02T12:39:00.358Z,13.70
2022-12-02T12:40:00.314Z,13.70
2022-12-02T12:41:00.288Z,13.70
2022-12-02T12:42:01.342Z,13.70
2022-12-02T12:43:00.377Z,13.70
2022-12-02T12:44:00.393Z,13.70
2022-12-02T12:45:00.251Z,13.70
2022-12-02T12:46:00.302Z,13.70
2022-12-02T12:47:01.129Z,13.70
2022-12-02T12:48:00.239Z,14.80
2022-12-02T12:49:00.232Z,14.80
2022-12-02T12:50:00.487Z,14.80
2022-12-02T12:51:00.263Z,14.80
2022-12-02T12:52:00.837Z,14.80
2022-12-02T12:53:00.381Z,14.80
2022-12-02T12:54:00.404Z,14.80
2022-12-02T12:55:00.266Z,14.80
2022-12-02T12:56:01.367Z,14.80
2022-12-02T12:57:00.286Z,14.80
2022-12-02T12:58:00.227Z,14.80
2022-12-02T12:59:00.238Z,14.80
2022-12-02T13:00:00.399Z,14.80
2022-12-02T13:01:00.291Z,14.80
2022-12-02T13:02:00.366Z,14.80
2022-12-02T13:03:00.267Z,14.80
2022-12-02T13:04:00.279Z,14.80
2022-12-02T13:05:00.237Z,14.80
2022-12-02T13:06:00.270Z,14.80
2022-12-02T13:07:00.229Z,14.80
2022-12-02T13:08:00.362Z,14.80
2022-12-02T13:09:00.244Z,14.80
2022-12-02T13:10:00.303Z,14.80